THY49T EDDH-LTFM
Flight info
| Callsign | THY49T |
|---|---|
| Flight time | 2h 49m |
| Altitude | 35000 |
| Route | AMLUH2G/33 AMLUH M852 DENIX DCT ZUCKA DCT OMELO DCT ODLIV DCT MAVOR/N0448F370 DCT UVERA DCT BIVBU DCT BUVAK DCT RIXEN |
| Aircraft | A321/M-SDE3FGHIRWY/LB1 |
Departure
| Time | 2026-05-04 14:52 |
|---|---|
| Airport | Hamburg Helmut Schmidt Airport (EDDH) |
Arrival
| Time | 2026-05-04 17:41 |
|---|---|
| Airport | İstanbul Airport (LTFM) |
| Time | Latitude | Longitude | Altitude | Speed | Heading |
|---|---|---|---|---|---|
| 2026-05-04 14:25 | 53.63372 | 10.00336 | 49 ft | 0 kts | 86° |
| 2026-05-04 14:41 | 53.63372 | 10.00329 | 48 ft | 2 kts | 86° |
| 2026-05-04 14:41 | 53.63370 | 10.00263 | 46 ft | 3 kts | 86° |
| 2026-05-04 14:42 | 53.63369 | 10.00196 | 46 ft | 3 kts | 108° |
| 2026-05-04 14:42 | 53.63377 | 10.00169 | 45 ft | 3 kts | 141° |
| 2026-05-04 14:42 | 53.63390 | 10.00157 | 46 ft | 1 kts | 175° |
| 2026-05-04 14:43 | 53.63392 | 10.00157 | 46 ft | 0 kts | 176° |
| 2026-05-04 14:45 | 53.63389 | 10.00157 | 46 ft | 1 kts | 176° |
| 2026-05-04 14:46 | 53.63373 | 10.00159 | 44 ft | 4 kts | 176° |
| 2026-05-04 14:46 | 53.63329 | 10.00164 | 48 ft | 8 kts | 176° |
| 2026-05-04 14:46 | 53.63257 | 10.00172 | 48 ft | 12 kts | 176° |
| 2026-05-04 14:46 | 53.63172 | 10.00184 | 48 ft | 13 kts | 175° |
| 2026-05-04 14:47 | 53.63082 | 10.00189 | 48 ft | 14 kts | 193° |
| 2026-05-04 14:47 | 53.62996 | 10.00104 | 48 ft | 15 kts | 213° |
| 2026-05-04 14:47 | 53.62926 | 10.00012 | 48 ft | 10 kts | 235° |
| 2026-05-04 14:47 | 53.62905 | 9.99941 | 46 ft | 4 kts | 243° |
| 2026-05-04 14:48 | 53.62900 | 9.99927 | 47 ft | 0 kts | 243° |
| 2026-05-04 14:48 | 53.62899 | 9.99922 | 48 ft | 3 kts | 243° |
| 2026-05-04 14:49 | 53.62880 | 9.99861 | 47 ft | 9 kts | 243° |
| 2026-05-04 14:49 | 53.62857 | 9.99775 | 44 ft | 7 kts | 259° |
| 2026-05-04 14:49 | 53.62877 | 9.99734 | 44 ft | 0 kts | 334° |
| 2026-05-04 14:51 | 53.62884 | 9.99728 | 45 ft | 5 kts | 334° |
| 2026-05-04 14:51 | 53.63089 | 9.99553 | 46 ft | 70 kts | 332° |
| 2026-05-04 14:51 | 53.63729 | 9.99001 | 49 ft | 133 kts | 333° |
| 2026-05-04 14:51 | 53.64680 | 9.98176 | 247 ft | 163 kts | 331° |
| 2026-05-04 14:52 | 53.65692 | 9.97309 | 864 ft | 165 kts | 332° |
| 2026-05-04 14:52 | 53.66719 | 9.96443 | 1516 ft | 167 kts | 332° |
| 2026-05-04 14:52 | 53.67769 | 9.95557 | 2025 ft | 170 kts | 330° |
| 2026-05-04 14:52 | 53.68848 | 9.94771 | 2571 ft | 177 kts | 342° |
| 2026-05-04 14:53 | 53.70115 | 9.94656 | 3063 ft | 184 kts | 357° |
| 2026-05-04 14:53 | 53.71430 | 9.94694 | 3453 ft | 196 kts | 356° |
| 2026-05-04 14:53 | 53.72817 | 9.95345 | 3627 ft | 225 kts | 32° |
| 2026-05-04 14:53 | 53.73700 | 9.97572 | 3963 ft | 237 kts | 74° |
| 2026-05-04 14:54 | 53.74014 | 10.00289 | 4400 ft | 242 kts | 79° |
| 2026-05-04 14:54 | 53.74046 | 10.03158 | 5034 ft | 244 kts | 101° |
| 2026-05-04 14:54 | 53.73497 | 10.05891 | 5504 ft | 254 kts | 121° |
| 2026-05-04 14:54 | 53.72558 | 10.08574 | 5716 ft | 278 kts | 122° |
| 2026-05-04 14:55 | 53.71567 | 10.11453 | 6377 ft | 285 kts | 122° |
| 2026-05-04 14:55 | 53.70581 | 10.14381 | 7123 ft | 289 kts | 122° |
| 2026-05-04 14:55 | 53.69538 | 10.17293 | 7855 ft | 291 kts | 130° |
| 2026-05-04 14:55 | 53.68129 | 10.19729 | 8603 ft | 290 kts | 146° |
| 2026-05-04 14:56 | 53.66414 | 10.21410 | 9348 ft | 288 kts | 162° |
| 2026-05-04 14:56 | 53.64493 | 10.22387 | 10093 ft | 289 kts | 169° |
| 2026-05-04 14:56 | 53.62485 | 10.23279 | 10405 ft | 309 kts | 169° |
| 2026-05-04 14:56 | 53.60317 | 10.24251 | 10573 ft | 333 kts | 168° |
| 2026-05-04 14:57 | 53.58017 | 10.25293 | 10693 ft | 355 kts | 168° |
| 2026-05-04 14:57 | 53.55595 | 10.26406 | 11105 ft | 365 kts | 168° |
| 2026-05-04 14:57 | 53.53120 | 10.27551 | 11716 ft | 370 kts | 168° |
| 2026-05-04 14:57 | 53.50624 | 10.28704 | 12363 ft | 374 kts | 168° |
| 2026-05-04 14:58 | 53.48121 | 10.29859 | 13013 ft | 378 kts | 168° |
| 2026-05-04 14:58 | 53.45565 | 10.31031 | 13671 ft | 382 kts | 168° |
| 2026-05-04 14:58 | 53.42981 | 10.32211 | 14265 ft | 386 kts | 168° |
| 2026-05-04 14:58 | 53.41230 | 10.33004 | 14683 ft | 388 kts | 168° |
| 2026-05-04 14:59 | 53.37754 | 10.34564 | 15503 ft | 391 kts | 169° |
| 2026-05-04 14:59 | 53.35112 | 10.35749 | 16144 ft | 394 kts | 169° |
| 2026-05-04 14:59 | 53.29810 | 10.38138 | 17395 ft | 399 kts | 169° |
| 2026-05-04 15:00 | 53.27118 | 10.39348 | 18008 ft | 402 kts | 169° |
| 2026-05-04 15:00 | 53.24403 | 10.40562 | 18577 ft | 404 kts | 169° |
| 2026-05-04 15:00 | 53.21677 | 10.41776 | 19100 ft | 407 kts | 169° |
| 2026-05-04 15:01 | 53.16186 | 10.44216 | 20129 ft | 412 kts | 170° |
| 2026-05-04 15:01 | 53.13394 | 10.45458 | 20622 ft | 415 kts | 170° |
| 2026-05-04 15:01 | 53.11532 | 10.46229 | 20928 ft | 416 kts | 171° |
| 2026-05-04 15:01 | 53.07949 | 10.48794 | 21547 ft | 434 kts | 149° |
| 2026-05-04 15:02 | 53.06386 | 10.51024 | 21848 ft | 442 kts | 139° |
| 2026-05-04 15:02 | 53.04234 | 10.54717 | 22295 ft | 446 kts | 139° |
| 2026-05-04 15:02 | 53.02102 | 10.58399 | 22727 ft | 449 kts | 139° |
| 2026-05-04 15:02 | 52.99924 | 10.62158 | 23147 ft | 452 kts | 139° |
| 2026-05-04 15:03 | 52.97725 | 10.65928 | 23563 ft | 455 kts | 139° |
| 2026-05-04 15:03 | 52.95510 | 10.69697 | 23904 ft | 458 kts | 140° |
| 2026-05-04 15:03 | 52.93268 | 10.73505 | 24289 ft | 460 kts | 140° |
| 2026-05-04 15:03 | 52.91053 | 10.77264 | 24651 ft | 462 kts | 140° |
| 2026-05-04 15:04 | 52.88800 | 10.81085 | 25014 ft | 464 kts | 140° |
| 2026-05-04 15:04 | 52.86529 | 10.84927 | 25382 ft | 467 kts | 140° |
| 2026-05-04 15:04 | 52.84249 | 10.88775 | 25729 ft | 469 kts | 140° |
| 2026-05-04 15:04 | 52.81954 | 10.92644 | 26075 ft | 471 kts | 140° |
| 2026-05-04 15:05 | 52.79646 | 10.96518 | 26415 ft | 473 kts | 140° |
| 2026-05-04 15:05 | 52.77331 | 11.00401 | 26759 ft | 476 kts | 140° |
| 2026-05-04 15:05 | 52.75027 | 11.04263 | 27107 ft | 478 kts | 141° |
| 2026-05-04 15:05 | 52.72687 | 11.08187 | 27443 ft | 480 kts | 140° |
| 2026-05-04 15:06 | 52.70337 | 11.12124 | 27793 ft | 482 kts | 140° |
| 2026-05-04 15:06 | 52.67986 | 11.16062 | 28238 ft | 481 kts | 140° |
| 2026-05-04 15:06 | 52.65632 | 11.19993 | 28716 ft | 480 kts | 140° |
| 2026-05-04 15:07 | 52.60968 | 11.27753 | 29669 ft | 478 kts | 141° |
| 2026-05-04 15:07 | 52.58634 | 11.31630 | 30122 ft | 477 kts | 141° |
| 2026-05-04 15:07 | 52.56295 | 11.35502 | 30519 ft | 476 kts | 141° |
| 2026-05-04 15:07 | 52.53959 | 11.39358 | 30897 ft | 475 kts | 141° |
| 2026-05-04 15:08 | 52.51653 | 11.43161 | 31273 ft | 474 kts | 141° |
| 2026-05-04 15:08 | 52.49313 | 11.47010 | 31658 ft | 474 kts | 141° |
| 2026-05-04 15:08 | 52.46975 | 11.50851 | 32037 ft | 474 kts | 141° |
| 2026-05-04 15:08 | 52.44648 | 11.54673 | 32381 ft | 474 kts | 141° |
| 2026-05-04 15:09 | 52.42313 | 11.58505 | 32742 ft | 473 kts | 141° |
| 2026-05-04 15:09 | 52.40007 | 11.62288 | 33122 ft | 472 kts | 141° |
| 2026-05-04 15:09 | 52.37684 | 11.66092 | 33474 ft | 472 kts | 141° |
| 2026-05-04 15:10 | 52.33033 | 11.73681 | 34169 ft | 471 kts | 141° |
| 2026-05-04 15:10 | 52.30732 | 11.77421 | 34460 ft | 471 kts | 141° |
| 2026-05-04 15:10 | 52.26080 | 11.84972 | 34944 ft | 471 kts | 141° |
| 2026-05-04 15:11 | 52.23746 | 11.88740 | 34984 ft | 471 kts | 141° |
| 2026-05-04 15:11 | 52.19035 | 11.96202 | 34979 ft | 470 kts | 141° |
| 2026-05-04 15:12 | 52.14342 | 12.03517 | 34960 ft | 468 kts | 141° |
| 2026-05-04 15:12 | 52.09639 | 12.10847 | 34975 ft | 467 kts | 141° |
| 2026-05-04 15:13 | 52.04939 | 12.18183 | 34976 ft | 467 kts | 141° |
| 2026-05-04 15:13 | 52.00248 | 12.25509 | 34980 ft | 468 kts | 141° |
| 2026-05-04 15:14 | 51.95576 | 12.32771 | 34969 ft | 468 kts | 141° |
| 2026-05-04 15:14 | 51.90859 | 12.40068 | 34978 ft | 468 kts | 141° |
| 2026-05-04 15:15 | 51.86166 | 12.47312 | 34987 ft | 468 kts | 141° |
| 2026-05-04 15:15 | 51.81438 | 12.54583 | 34989 ft | 466 kts | 141° |
| 2026-05-04 15:16 | 51.74407 | 12.65360 | 34989 ft | 466 kts | 141° |
| 2026-05-04 15:17 | 51.67351 | 12.76134 | 34978 ft | 466 kts | 141° |
| 2026-05-04 15:17 | 51.60279 | 12.86879 | 34985 ft | 466 kts | 141° |
| 2026-05-04 15:18 | 51.55543 | 12.94041 | 34982 ft | 465 kts | 141° |
| 2026-05-04 15:19 | 51.48477 | 13.04696 | 34993 ft | 465 kts | 141° |
| 2026-05-04 15:19 | 51.41386 | 13.15343 | 34970 ft | 465 kts | 142° |
| 2026-05-04 15:20 | 51.36674 | 13.22383 | 34981 ft | 465 kts | 142° |
| 2026-05-04 15:20 | 51.31931 | 13.29456 | 34985 ft | 465 kts | 142° |
| 2026-05-04 15:21 | 51.27199 | 13.36481 | 34972 ft | 465 kts | 142° |
| 2026-05-04 15:22 | 51.20080 | 13.47034 | 34977 ft | 465 kts | 141° |
| 2026-05-04 15:22 | 51.12931 | 13.57569 | 34985 ft | 466 kts | 141° |
| 2026-05-04 15:23 | 51.08166 | 13.64575 | 34991 ft | 467 kts | 141° |
| 2026-05-04 15:23 | 51.03414 | 13.71549 | 34994 ft | 467 kts | 141° |
| 2026-05-04 15:24 | 50.93837 | 13.85512 | 34991 ft | 467 kts | 142° |
| 2026-05-04 15:25 | 50.89071 | 13.92416 | 34997 ft | 466 kts | 142° |
| 2026-05-04 15:26 | 50.83323 | 14.01441 | 34991 ft | 472 kts | 130° |
| 2026-05-04 15:26 | 50.78825 | 14.12394 | 34990 ft | 474 kts | 126° |
| 2026-05-04 15:27 | 50.73495 | 14.25528 | 34989 ft | 474 kts | 126° |
| 2026-05-04 15:28 | 50.68148 | 14.38600 | 34984 ft | 474 kts | 126° |
| 2026-05-04 15:29 | 50.62783 | 14.51713 | 34994 ft | 473 kts | 126° |
| 2026-05-04 15:30 | 50.50229 | 14.82060 | 34993 ft | 473 kts | 126° |
| 2026-05-04 15:31 | 50.45240 | 14.91826 | 34991 ft | 468 kts | 136° |
| 2026-05-04 15:32 | 50.42967 | 14.95650 | 34995 ft | 468 kts | 136° |
| 2026-05-04 15:34 | 50.31863 | 15.14383 | 34984 ft | 469 kts | 136° |
| 2026-05-04 15:34 | 50.25192 | 15.25546 | 34987 ft | 470 kts | 136° |
| 2026-05-04 15:35 | 50.19811 | 15.34503 | 34984 ft | 470 kts | 136° |
| 2026-05-04 15:36 | 50.13084 | 15.45665 | 34988 ft | 471 kts | 136° |
| 2026-05-04 15:36 | 50.08611 | 15.53074 | 34994 ft | 471 kts | 136° |
| 2026-05-04 15:37 | 50.04110 | 15.60502 | 34995 ft | 471 kts | 136° |
| 2026-05-04 15:37 | 49.99616 | 15.67875 | 34990 ft | 471 kts | 136° |
| 2026-05-04 15:38 | 49.95099 | 15.75256 | 34994 ft | 471 kts | 136° |
| 2026-05-04 15:38 | 49.90577 | 15.82662 | 35002 ft | 471 kts | 136° |
| 2026-05-04 15:39 | 49.86092 | 15.89998 | 35005 ft | 471 kts | 136° |
| 2026-05-04 15:40 | 49.79283 | 16.01031 | 35004 ft | 471 kts | 136° |
| 2026-05-04 15:40 | 49.74779 | 16.08305 | 34994 ft | 471 kts | 135° |
| 2026-05-04 15:41 | 49.70238 | 16.15638 | 34998 ft | 471 kts | 135° |
| 2026-05-04 15:41 | 49.65718 | 16.22921 | 34999 ft | 471 kts | 136° |
| 2026-05-04 15:42 | 49.61165 | 16.30223 | 35000 ft | 471 kts | 136° |
| 2026-05-04 15:42 | 49.56712 | 16.37342 | 34998 ft | 471 kts | 136° |
| 2026-05-04 15:43 | 49.52170 | 16.44579 | 35000 ft | 471 kts | 136° |
| 2026-05-04 15:43 | 49.47607 | 16.51837 | 35000 ft | 471 kts | 136° |
| 2026-05-04 15:44 | 49.43037 | 16.59102 | 34992 ft | 471 kts | 136° |
| 2026-05-04 15:44 | 49.38491 | 16.66283 | 34992 ft | 471 kts | 136° |
| 2026-05-04 15:45 | 49.33906 | 16.73502 | 35007 ft | 471 kts | 135° |
| 2026-05-04 15:45 | 49.29329 | 16.80687 | 35006 ft | 470 kts | 135° |
| 2026-05-04 15:46 | 49.24757 | 16.87874 | 34989 ft | 470 kts | 135° |
| 2026-05-04 15:46 | 49.20212 | 16.94987 | 34998 ft | 469 kts | 135° |
| 2026-05-04 15:47 | 49.16401 | 17.00933 | 35001 ft | 469 kts | 136° |
| 2026-05-04 15:47 | 49.11819 | 17.08067 | 35018 ft | 469 kts | 135° |
| 2026-05-04 15:48 | 49.07279 | 17.15124 | 35015 ft | 468 kts | 135° |
| 2026-05-04 15:48 | 49.00407 | 17.25729 | 35022 ft | 468 kts | 136° |
| 2026-05-04 15:49 | 48.95849 | 17.32737 | 35023 ft | 468 kts | 136° |
| 2026-05-04 15:49 | 48.91265 | 17.39779 | 35023 ft | 467 kts | 136° |
| 2026-05-04 15:50 | 48.86678 | 17.46813 | 35021 ft | 467 kts | 136° |
| 2026-05-04 15:50 | 48.82147 | 17.53804 | 34999 ft | 468 kts | 132° |
| 2026-05-04 15:51 | 48.78036 | 17.61497 | 35017 ft | 468 kts | 129° |
| 2026-05-04 15:51 | 48.73933 | 17.69185 | 35020 ft | 468 kts | 130° |
| 2026-05-04 15:52 | 48.69817 | 17.76870 | 35024 ft | 468 kts | 130° |
| 2026-05-04 15:52 | 48.65727 | 17.84478 | 35022 ft | 468 kts | 130° |
| 2026-05-04 15:53 | 48.61610 | 17.92129 | 35020 ft | 468 kts | 130° |
| 2026-05-04 15:53 | 48.57517 | 17.99733 | 35016 ft | 468 kts | 130° |
| 2026-05-04 15:54 | 48.53561 | 18.07064 | 35019 ft | 467 kts | 130° |
| 2026-05-04 15:54 | 48.49479 | 18.14582 | 35026 ft | 467 kts | 130° |
| 2026-05-04 15:55 | 48.45336 | 18.22193 | 35029 ft | 468 kts | 130° |
| 2026-05-04 15:55 | 48.41233 | 18.29710 | 35129 ft | 466 kts | 130° |
| 2026-05-04 15:56 | 48.37101 | 18.37265 | 35331 ft | 466 kts | 130° |
| 2026-05-04 15:56 | 48.32999 | 18.44743 | 35528 ft | 465 kts | 130° |
| 2026-05-04 15:57 | 48.28878 | 18.52232 | 35731 ft | 465 kts | 130° |
| 2026-05-04 15:57 | 48.24775 | 18.59679 | 35943 ft | 465 kts | 130° |
| 2026-05-04 15:58 | 48.20645 | 18.67157 | 36127 ft | 464 kts | 130° |
| 2026-05-04 15:58 | 48.18580 | 18.70876 | 36237 ft | 463 kts | 129° |
| 2026-05-04 15:58 | 48.16516 | 18.74588 | 36339 ft | 463 kts | 129° |
| 2026-05-04 15:59 | 48.12385 | 18.82004 | 36555 ft | 463 kts | 130° |
| 2026-05-04 15:59 | 48.10329 | 18.85684 | 36660 ft | 463 kts | 130° |
| 2026-05-04 15:59 | 48.08267 | 18.89379 | 36770 ft | 462 kts | 130° |
| 2026-05-04 16:00 | 48.06232 | 18.93023 | 36882 ft | 462 kts | 130° |
| 2026-05-04 16:00 | 48.04184 | 18.96686 | 37014 ft | 462 kts | 130° |
| 2026-05-04 16:00 | 48.00058 | 19.04052 | 37049 ft | 462 kts | 129° |
| 2026-05-04 16:01 | 47.95948 | 19.11367 | 37030 ft | 461 kts | 129° |
| 2026-05-04 16:01 | 47.91810 | 19.18704 | 37036 ft | 462 kts | 130° |
| 2026-05-04 16:02 | 47.87652 | 19.26053 | 37043 ft | 462 kts | 130° |
| 2026-05-04 16:03 | 47.81451 | 19.36983 | 37038 ft | 461 kts | 129° |
| 2026-05-04 16:03 | 47.77305 | 19.44268 | 37056 ft | 461 kts | 130° |
| 2026-05-04 16:04 | 47.73150 | 19.51546 | 37042 ft | 461 kts | 130° |
| 2026-05-04 16:04 | 47.66931 | 19.62403 | 37065 ft | 461 kts | 130° |
| 2026-05-04 16:05 | 47.62761 | 19.69669 | 37053 ft | 461 kts | 129° |
| 2026-05-04 16:06 | 47.56513 | 19.80498 | 37053 ft | 462 kts | 129° |
| 2026-05-04 16:07 | 47.48164 | 19.94936 | 37069 ft | 462 kts | 130° |
| 2026-05-04 16:08 | 47.39761 | 20.09338 | 37067 ft | 462 kts | 129° |
| 2026-05-04 16:09 | 47.29252 | 20.27267 | 37062 ft | 462 kts | 129° |
| 2026-05-04 16:10 | 47.20841 | 20.41560 | 37060 ft | 463 kts | 129° |
| 2026-05-04 16:11 | 47.12708 | 20.56197 | 37068 ft | 462 kts | 126° |
| 2026-05-04 16:12 | 47.00678 | 20.78277 | 37082 ft | 462 kts | 127° |
| 2026-05-04 16:13 | 46.92611 | 20.92889 | 37082 ft | 462 kts | 127° |
| 2026-05-04 16:14 | 46.84510 | 21.07464 | 37087 ft | 461 kts | 127° |
| 2026-05-04 16:16 | 46.74384 | 21.25645 | 37084 ft | 460 kts | 127° |
| 2026-05-04 16:17 | 46.64512 | 21.43940 | 37084 ft | 460 kts | 127° |
| 2026-05-04 16:18 | 46.56560 | 21.58459 | 37088 ft | 459 kts | 127° |
| 2026-05-04 16:19 | 46.46608 | 21.76577 | 37084 ft | 460 kts | 127° |
| 2026-05-04 16:20 | 46.36616 | 21.94633 | 37086 ft | 459 kts | 127° |
| 2026-05-04 16:22 | 46.26601 | 22.12601 | 37096 ft | 459 kts | 127° |
| 2026-05-04 16:23 | 46.14571 | 22.34074 | 37083 ft | 459 kts | 127° |
| 2026-05-04 16:25 | 46.02495 | 22.55433 | 37079 ft | 458 kts | 127° |
| 2026-05-04 16:26 | 45.88394 | 22.80164 | 37077 ft | 457 kts | 128° |
| 2026-05-04 16:28 | 45.78279 | 22.97799 | 37070 ft | 457 kts | 128° |
| 2026-05-04 16:29 | 45.64122 | 23.22268 | 37076 ft | 457 kts | 128° |
| 2026-05-04 16:31 | 45.53949 | 23.39712 | 37090 ft | 457 kts | 128° |
| 2026-05-04 16:32 | 45.41739 | 23.60528 | 37088 ft | 457 kts | 128° |
| 2026-05-04 16:33 | 45.33528 | 23.74419 | 37077 ft | 458 kts | 128° |
| 2026-05-04 16:34 | 45.28079 | 23.83602 | 37075 ft | 458 kts | 128° |
| 2026-05-04 16:35 | 45.15703 | 24.04371 | 37064 ft | 457 kts | 129° |
| 2026-05-04 16:36 | 45.09518 | 24.14695 | 37054 ft | 458 kts | 129° |
| 2026-05-04 16:37 | 45.03342 | 24.24959 | 37049 ft | 459 kts | 129° |
| 2026-05-04 16:38 | 44.95038 | 24.38685 | 37049 ft | 458 kts | 130° |
| 2026-05-04 16:39 | 44.84708 | 24.55709 | 37049 ft | 457 kts | 130° |
| 2026-05-04 16:40 | 44.76400 | 24.69275 | 37049 ft | 458 kts | 130° |
| 2026-05-04 16:41 | 44.66006 | 24.86214 | 37053 ft | 458 kts | 130° |
| 2026-05-04 16:43 | 44.55567 | 25.03115 | 37041 ft | 459 kts | 130° |
| 2026-05-04 16:43 | 44.49269 | 25.13260 | 37044 ft | 459 kts | 130° |
| 2026-05-04 16:45 | 44.36682 | 25.33417 | 37042 ft | 458 kts | 130° |
| 2026-05-04 16:46 | 44.26188 | 25.50116 | 37052 ft | 457 kts | 131° |
| 2026-05-04 16:47 | 44.17790 | 25.63414 | 37054 ft | 457 kts | 131° |
| 2026-05-04 16:48 | 44.09394 | 25.76657 | 37054 ft | 457 kts | 131° |
| 2026-05-04 16:49 | 44.00967 | 25.89848 | 37052 ft | 457 kts | 131° |
| 2026-05-04 16:50 | 43.92532 | 26.03036 | 37046 ft | 455 kts | 131° |
| 2026-05-04 16:51 | 43.86186 | 26.12891 | 37049 ft | 456 kts | 131° |
| 2026-05-04 16:52 | 43.77764 | 26.25962 | 37048 ft | 456 kts | 131° |
| 2026-05-04 16:53 | 43.71431 | 26.35730 | 37048 ft | 456 kts | 131° |
| 2026-05-04 16:54 | 43.62966 | 26.48717 | 37047 ft | 455 kts | 131° |
| 2026-05-04 16:55 | 43.50266 | 26.68132 | 37052 ft | 455 kts | 131° |
| 2026-05-04 16:56 | 43.39619 | 26.84280 | 37049 ft | 455 kts | 131° |
| 2026-05-04 16:57 | 43.33264 | 26.93901 | 37068 ft | 455 kts | 131° |
| 2026-05-04 16:58 | 43.24715 | 27.06743 | 37055 ft | 456 kts | 131° |
| 2026-05-04 17:00 | 43.11874 | 27.25986 | 37046 ft | 456 kts | 131° |
| 2026-05-04 17:01 | 43.01153 | 27.41920 | 37064 ft | 456 kts | 130° |
| 2026-05-04 17:02 | 42.92596 | 27.54605 | 37059 ft | 455 kts | 130° |
| 2026-05-04 17:03 | 42.86155 | 27.64122 | 37067 ft | 456 kts | 131° |
| 2026-05-04 17:03 | 42.79690 | 27.73612 | 37074 ft | 456 kts | 130° |
| 2026-05-04 17:04 | 42.71021 | 27.86283 | 37074 ft | 456 kts | 130° |
| 2026-05-04 17:05 | 42.62377 | 27.98890 | 37065 ft | 456 kts | 130° |
| 2026-05-04 17:06 | 42.58214 | 28.04946 | 37069 ft | 457 kts | 130° |
| 2026-05-04 17:07 | 42.52417 | 28.13336 | 37061 ft | 457 kts | 130° |
| 2026-05-04 17:07 | 42.47355 | 28.20659 | 37057 ft | 457 kts | 130° |
| 2026-05-04 17:08 | 42.40802 | 28.30108 | 36385 ft | 461 kts | 130° |
| 2026-05-04 17:08 | 42.38592 | 28.33289 | 35514 ft | 466 kts | 129° |
| 2026-05-04 17:09 | 42.36359 | 28.36491 | 34769 ft | 467 kts | 129° |
| 2026-05-04 17:09 | 42.34153 | 28.39648 | 34075 ft | 467 kts | 128° |
| 2026-05-04 17:09 | 42.31919 | 28.42844 | 33243 ft | 467 kts | 128° |
| 2026-05-04 17:10 | 42.27435 | 28.49267 | 31413 ft | 471 kts | 128° |
| 2026-05-04 17:10 | 42.20655 | 28.58975 | 28250 ft | 480 kts | 128° |
| 2026-05-04 17:11 | 42.18346 | 28.62264 | 27056 ft | 484 kts | 128° |
| 2026-05-04 17:11 | 42.16018 | 28.65572 | 25963 ft | 487 kts | 129° |
| 2026-05-04 17:11 | 42.11440 | 28.71936 | 25546 ft | 457 kts | 133° |
| 2026-05-04 17:12 | 42.08884 | 28.74407 | 25420 ft | 449 kts | 146° |
| 2026-05-04 17:12 | 42.02999 | 28.76828 | 24778 ft | 444 kts | 173° |
| 2026-05-04 17:13 | 41.93796 | 28.77182 | 23231 ft | 440 kts | 175° |
| 2026-05-04 17:14 | 41.84698 | 28.77532 | 21764 ft | 430 kts | 175° |
| 2026-05-04 17:14 | 41.81764 | 28.77625 | 21531 ft | 421 kts | 178° |
| 2026-05-04 17:14 | 41.76284 | 28.75650 | 21257 ft | 400 kts | 210° |
| 2026-05-04 17:15 | 41.74066 | 28.73471 | 20957 ft | 391 kts | 226° |
| 2026-05-04 17:15 | 41.70782 | 28.67819 | 20126 ft | 382 kts | 237° |
| 2026-05-04 17:16 | 41.67686 | 28.62125 | 19310 ft | 377 kts | 237° |
| 2026-05-04 17:16 | 41.63070 | 28.53676 | 18079 ft | 371 kts | 237° |
| 2026-05-04 17:17 | 41.61550 | 28.50901 | 17651 ft | 369 kts | 237° |
| 2026-05-04 17:17 | 41.57072 | 28.42750 | 16595 ft | 357 kts | 237° |
| 2026-05-04 17:18 | 41.55605 | 28.40089 | 16353 ft | 355 kts | 237° |
| 2026-05-04 17:18 | 41.52682 | 28.34792 | 15735 ft | 353 kts | 236° |
| 2026-05-04 17:19 | 41.49751 | 28.29615 | 15068 ft | 346 kts | 236° |
| 2026-05-04 17:19 | 41.46846 | 28.24539 | 15060 ft | 344 kts | 236° |
| 2026-05-04 17:20 | 41.43944 | 28.19456 | 15007 ft | 344 kts | 236° |
| 2026-05-04 17:20 | 41.41056 | 28.14387 | 14161 ft | 344 kts | 234° |
| 2026-05-04 17:20 | 41.39344 | 28.12149 | 13802 ft | 344 kts | 217° |
| 2026-05-04 17:21 | 41.34915 | 28.10047 | 12964 ft | 339 kts | 180° |
| 2026-05-04 17:21 | 41.30252 | 28.10109 | 11754 ft | 332 kts | 177° |
| 2026-05-04 17:22 | 41.27986 | 28.10138 | 11311 ft | 317 kts | 181° |
| 2026-05-04 17:22 | 41.25864 | 28.09645 | 10750 ft | 309 kts | 200° |
| 2026-05-04 17:23 | 41.20988 | 28.04660 | 10006 ft | 293 kts | 229° |
| 2026-05-04 17:23 | 41.19525 | 28.02772 | 10009 ft | 293 kts | 228° |
| 2026-05-04 17:23 | 41.16675 | 28.00216 | 10012 ft | 298 kts | 211° |
| 2026-05-04 17:24 | 41.14854 | 27.98884 | 10014 ft | 302 kts | 210° |
| 2026-05-04 17:24 | 41.09051 | 27.99516 | 9764 ft | 276 kts | 132° |
| 2026-05-04 17:25 | 41.07885 | 28.01438 | 9462 ft | 262 kts | 109° |
| 2026-05-04 17:25 | 41.06624 | 28.05880 | 8761 ft | 257 kts | 103° |
| 2026-05-04 17:26 | 41.05419 | 28.10282 | 8143 ft | 255 kts | 102° |
| 2026-05-04 17:26 | 41.03601 | 28.16868 | 7184 ft | 252 kts | 103° |
| 2026-05-04 17:27 | 41.02395 | 28.21220 | 6570 ft | 250 kts | 103° |
| 2026-05-04 17:27 | 41.01212 | 28.25502 | 6056 ft | 248 kts | 103° |
| 2026-05-04 17:28 | 41.00033 | 28.29772 | 5526 ft | 246 kts | 103° |
| 2026-05-04 17:29 | 40.98281 | 28.36091 | 5003 ft | 244 kts | 103° |
| 2026-05-04 17:29 | 40.96018 | 28.42253 | 5012 ft | 250 kts | 113° |
| 2026-05-04 17:30 | 40.93446 | 28.48226 | 5013 ft | 249 kts | 113° |
| 2026-05-04 17:31 | 40.91718 | 28.52222 | 5015 ft | 251 kts | 114° |
| 2026-05-04 17:31 | 40.89581 | 28.58421 | 5008 ft | 239 kts | 88° |
| 2026-05-04 17:32 | 40.90111 | 28.62560 | 5016 ft | 225 kts | 63° |
| 2026-05-04 17:33 | 40.91772 | 28.68276 | 5013 ft | 214 kts | 48° |
| 2026-05-04 17:33 | 40.92748 | 28.69670 | 5010 ft | 203 kts | 32° |
| 2026-05-04 17:34 | 40.96371 | 28.72416 | 5010 ft | 201 kts | 25° |
| 2026-05-04 17:34 | 40.97614 | 28.73172 | 5023 ft | 188 kts | 12° |
| 2026-05-04 17:35 | 41.01351 | 28.73258 | 5009 ft | 178 kts | 359° |
| 2026-05-04 17:35 | 41.03837 | 28.73208 | 4743 ft | 177 kts | 359° |
| 2026-05-04 17:35 | 41.05052 | 28.73185 | 4539 ft | 171 kts | 359° |
| 2026-05-04 17:36 | 41.06202 | 28.73163 | 4303 ft | 161 kts | 359° |
| 2026-05-04 17:36 | 41.07314 | 28.73141 | 4084 ft | 163 kts | 359° |
| 2026-05-04 17:36 | 41.08446 | 28.73119 | 3869 ft | 162 kts | 359° |
| 2026-05-04 17:36 | 41.09580 | 28.73098 | 3639 ft | 163 kts | 359° |
| 2026-05-04 17:37 | 41.10716 | 28.73076 | 3417 ft | 163 kts | 359° |
| 2026-05-04 17:37 | 41.11857 | 28.73054 | 3194 ft | 163 kts | 359° |
| 2026-05-04 17:37 | 41.12981 | 28.73032 | 2970 ft | 157 kts | 359° |
| 2026-05-04 17:37 | 41.14033 | 28.73012 | 2764 ft | 149 kts | 360° |
| 2026-05-04 17:38 | 41.15059 | 28.72992 | 2565 ft | 145 kts | 360° |
| 2026-05-04 17:38 | 41.16063 | 28.72972 | 2375 ft | 142 kts | 0° |
| 2026-05-04 17:38 | 41.17019 | 28.72953 | 2190 ft | 135 kts | 0° |
| 2026-05-04 17:38 | 41.17952 | 28.72936 | 2010 ft | 132 kts | 1° |
| 2026-05-04 17:39 | 41.19772 | 28.72900 | 1645 ft | 131 kts | 1° |
| 2026-05-04 17:39 | 41.20688 | 28.72883 | 1459 ft | 131 kts | 0° |
| 2026-05-04 17:39 | 41.21599 | 28.72864 | 1253 ft | 131 kts | 360° |
| 2026-05-04 17:40 | 41.22507 | 28.72847 | 1065 ft | 130 kts | 359° |
| 2026-05-04 17:40 | 41.23401 | 28.72848 | 896 ft | 129 kts | 358° |
| 2026-05-04 17:40 | 41.24301 | 28.72821 | 737 ft | 129 kts | 357° |
| 2026-05-04 17:40 | 41.25199 | 28.72803 | 589 ft | 129 kts | 355° |
| 2026-05-04 17:41 | 41.26099 | 28.72779 | 405 ft | 129 kts | 355° |
| 2026-05-04 17:41 | 41.26948 | 28.72755 | 331 ft | 106 kts | 359° |
| 2026-05-04 17:41 | 41.27512 | 28.72746 | 334 ft | 62 kts | 359° |
| 2026-05-04 17:41 | 41.27890 | 28.72748 | 332 ft | 46 kts | 6° |
| 2026-05-04 17:42 | 41.28094 | 28.72854 | 333 ft | 21 kts | 29° |
| 2026-05-04 17:42 | 41.28113 | 28.72952 | 331 ft | 13 kts | 148° |
| 2026-05-04 17:42 | 41.28034 | 28.72962 | 330 ft | 9 kts | 179° |
| 2026-05-04 17:42 | 41.27965 | 28.72963 | 331 ft | 11 kts | 179° |
| 2026-05-04 17:43 | 41.27881 | 28.72965 | 330 ft | 13 kts | 179° |
| 2026-05-04 17:43 | 41.27784 | 28.72966 | 332 ft | 15 kts | 179° |
| 2026-05-04 17:43 | 41.27672 | 28.72969 | 331 ft | 17 kts | 179° |
| 2026-05-04 17:43 | 41.27561 | 28.72973 | 334 ft | 17 kts | 178° |
| 2026-05-04 17:44 | 41.27440 | 28.72975 | 334 ft | 18 kts | 179° |
| 2026-05-04 17:44 | 41.27305 | 28.72978 | 330 ft | 20 kts | 179° |
| 2026-05-04 17:44 | 41.27157 | 28.72982 | 333 ft | 22 kts | 179° |
| 2026-05-04 17:44 | 41.27027 | 28.72985 | 333 ft | 13 kts | 179° |
| 2026-05-04 17:45 | 41.26954 | 28.73017 | 333 ft | 12 kts | 112° |
| 2026-05-04 17:45 | 41.26954 | 28.73133 | 334 ft | 14 kts | 88° |
| 2026-05-04 17:45 | 41.26956 | 28.73262 | 334 ft | 10 kts | 89° |
| 2026-05-04 17:45 | 41.26943 | 28.73316 | 329 ft | 7 kts | 140° |
| 2026-05-04 17:46 | 41.26889 | 28.73331 | 330 ft | 9 kts | 177° |
| 2026-05-04 17:46 | 41.26821 | 28.73332 | 332 ft | 9 kts | 179° |
| 2026-05-04 17:46 | 41.26769 | 28.73333 | 334 ft | 8 kts | 179° |
| 2026-05-04 17:46 | 41.26725 | 28.73334 | 334 ft | 0 kts | 179° |
| 2026-05-04 17:48 | 41.26721 | 28.73334 | 332 ft | 2 kts | 176° |
| 2026-05-04 17:48 | 41.26706 | 28.73347 | 331 ft | 3 kts | 131° |
| 2026-05-04 17:48 | 41.26704 | 28.73383 | 331 ft | 5 kts | 92° |
| 2026-05-04 17:48 | 41.26704 | 28.73390 | 331 ft | 0 kts | 91° |
| 2026-05-04 17:49 | 41.26704 | 28.73406 | 334 ft | 3 kts | 90° |
| 2026-05-04 17:49 | 41.26704 | 28.73436 | 334 ft | 3 kts | 88° |
| 2026-05-04 17:50 | 41.26704 | 28.73455 | 334 ft | 1 kts | 89° |
| 2026-05-04 17:50 | 41.26704 | 28.73457 | 334 ft | 0 kts | 89° |